hero-logo

Top 15 Knowers of RL Ralph Lauren Corp - 2017-07-21

Rank Fund Result (K)
1 Southeastern Asset Management Inc Tn $27,139
2 Carlson Capital L P $2,827
3 Loomis Sayles Co L P $2,614
4 Polar Capital Llp $970
5 Crawford Investment Counsel Inc $719
6 Cornerstone Capital Management Holdings Llc $219
7 A R T Advisors Llc $194
8 Fdo Partners Llc $180
9 Bokf Na $76
10 California State Teachers Retirement System $45
11 Sciencast Management Lp $38
12 Pt Asset Management Llc $32
13 Highbridge Capital Management Llc $30
14 Glen Harbor Capital Management Llc $22
15 Meadow Creek Investment Management Llc $18
Price Chart and News From Google Finance for RL Ralph Lauren Corp
Owner Date Shares Change Price Change Result (K)
Acrospire Investment Management Llc 2017-03-31 -972 $-8.70 $8
Advantage Investment Management Llc 2017-03-31 150 $-8.70 $-1
Ahl Partners Llp 2017-03-31 38,892 $-8.70 $-338
Amalgamated Bank 2017-03-31 84 $-8.70 $0
Aperio Group Llc 2017-03-31 -1,221 $-8.70 $10
A R T Advisors Llc 2017-03-31 -22,300 $-8.70 $194
Assetmark Inc 2017-03-31 -689 $-8.70 $5
Atlantic Investment Management Inc 2017-03-31 89,709 $-8.70 $-780
Bokf Na 2017-03-31 -8,767 $-8.70 $76
California State Teachers Retirement System 2017-03-31 -5,200 $-8.70 $45
Camg Solamere Management Llc 2017-03-31 12,428 $-8.70 $-108
Carlson Capital L P 2017-03-31 -325,000 $-8.70 $2,827
Clearline Capital Lp 2017-03-31 117,145 $-8.70 $-1,019
Cornerstone Capital Management Holdings Llc 2017-03-31 -25,245 $-8.70 $219
Crawford Investment Counsel Inc 2017-03-31 -82,720 $-8.70 $719
Denver Investment Advisors Llc 2017-03-31 -430 $-8.70 $3
Earnest Partners Llc 2017-03-31 -24 $-8.70 $0
Edmond De Rothschild Holding S A 2017-03-31 24,990 $-8.70 $-217
Ellington Management Group Llc 2017-03-31 9,600 $-8.70 $-83
Envestnet Asset Management Inc 2017-03-31 -32 $-8.70 $0
Euclidean Technologies Management Llc 2017-03-31 400 $-8.70 $-3
Fairpointe Capital Llc 2017-03-31 20,400 $-8.70 $-177
Fdo Partners Llc 2017-03-31 -20,794 $-8.70 $180
First Republic Investment Management Inc 2017-03-31 947 $-8.70 $-8
Franklin Parlapiano Turner Welch Llc 2017-03-31 20 $-8.70 $0
Glassman Wealth Services 2017-03-31 -4 $-8.70 $0
Glen Harbor Capital Management Llc 2017-03-31 -2,550 $-8.70 $22
Glg Llc 2017-03-31 -8 $-8.70 $0
Gotham Asset Management Llc 2017-03-31 140,532 $-8.70 $-1,222
Gsa Capital Partners Llp 2017-03-31 -750 $-8.70 $6
Guggenheim Capital Llc 2017-03-31 136,338 $-8.70 $-1,186
Hawk Ridge Capital Management Lp 2017-03-31 23,000 $-8.70 $-200
Highbridge Capital Management Llc 2017-03-31 -3,528 $-8.70 $30
Highlander Capital Management Llc 2017-03-31 0 $-8.70 $0
Horizon Kinetics Llc 2017-03-31 572 $-8.70 $-4
Hutchin Hill Capital Lp 2017-03-31 31,200 $-8.70 $-271
Ifp Advisors Inc 2017-03-31 -164 $-8.70 $1
Intellectus Partners Llc 2017-03-31 200 $-8.70 $-1
Ipg Investment Advisors Llc 2017-03-31 4,000 $-8.70 $-34
Itau Unibanco Holding S A 2017-03-31 -590 $-8.70 $5
Jacobs Levy Equity Management Inc 2017-03-31 23,550 $-8.70 $-204
Jane Street Group Llc 2017-03-31 73,647 $-8.70 $-640
Kentucky Retirement Systems 2017-03-31 -475 $-8.70 $4
Ladenburg Thalmann Financial Services Inc 2017-03-31 2,188 $-8.70 $-19
Loomis Sayles Co L P 2017-03-31 -300,519 $-8.70 $2,614
Mason Street Advisors Llc 2017-03-31 80 $-8.70 $0
Meadow Creek Investment Management Llc 2017-03-31 -2,100 $-8.70 $18
New York Life Trust Co 2017-03-31 -36 $-8.70 $0
Northwestern Mutual Investment Management Company Llc 2017-03-31 4,921 $-8.70 $-42
Northwestern Mutual Wealth Management Co 2017-03-31 -1,057 $-8.70 $9
Paloma Partners Management Co 2017-03-31 13,967 $-8.70 $-121
Piedmont Investment Advisors Llc 2017-03-31 -159 $-8.70 $1
Polar Capital Llp 2017-03-31 -111,565 $-8.70 $970
Proficio Capital Partners Llc 2017-03-31 -15 $-8.70 $0
Pt Asset Management Llc 2017-03-31 -3,700 $-8.70 $32
Public Employees Retirement System Of Ohio 2017-03-31 3,962 $-8.70 $-34
Raymond James Associates 2017-03-31 -1,054 $-8.70 $9
Riverhead Capital Management Llc 2017-03-31 -600 $-8.70 $5
Salem Investment Counselors Inc 2017-03-31 0 $-8.70 $0
Sciencast Management Lp 2017-03-31 -4,455 $-8.70 $38
Seven Eight Capital Lp 2017-03-31 2,600 $-8.70 $-22
Southeastern Asset Management Inc Tn 2017-03-31 -3,119,439 $-8.70 $27,139
South Street Advisors Llc 2017-03-31 0 $-8.70 $0
Squarepoint Ops Llc 2017-03-31 16,866 $-8.70 $-146
Tobam 2017-03-31 7,292 $-8.70 $-63
Tyers Asset Management Llc 2017-03-31 -1,200 $-8.70 $10
Vantage Investment Partners Llc 2017-03-31 52,500 $-8.70 $-456
Verition Fund Management Llc 2017-03-31 -1,004 $-8.70 $8
Walleye Trading Llc 2017-03-31 7,046 $-8.70 $-61
Willis Investment Counsel 2017-03-31 95 $-8.70 $0
Yorkbridge Wealth Partners Llc 2017-03-31 0 $-8.70 $0
Zuckerman Investment Group Llc 2017-03-31 41,388 $-8.70 $-360